sensor_id;sensor_type;location;lat;lon;timestamp;pressure;altitude;pressure_sealevel;temperature;humidity
68758;BME280;55747;51.998;4.466;2022-11-02T00:02:14;56577.09;;;-144.48;90.40
68758;BME280;55747;51.998;4.466;2022-11-02T00:04:40;56579.16;;;-144.48;89.95
68758;BME280;55747;51.998;4.466;2022-11-02T00:07:05;56595.69;;;-144.48;88.90
68758;BME280;55747;51.998;4.466;2022-11-02T00:09:30;56579.16;;;-144.48;87.75
68758;BME280;55747;51.998;4.466;2022-11-02T00:11:55;56572.94;;;-144.48;87.48
68758;BME280;55747;51.998;4.466;2022-11-02T00:14:21;56572.94;;;-144.48;87.57
68758;BME280;55747;51.998;4.466;2022-11-02T00:16:46;56612.22;;;-144.48;87.80
68758;BME280;55747;51.998;4.466;2022-11-02T00:19:12;56562.63;;;-144.48;88.18
68758;BME280;55747;51.998;4.466;2022-11-02T00:21:37;56546.06;;;-144.48;89.01
68758;BME280;55747;51.998;4.466;2022-11-02T00:24:04;56564.69;;;-144.48;89.76
68758;BME280;55747;51.998;4.466;2022-11-02T00:26:32;56597.75;;;-144.48;89.99
68758;BME280;55747;51.998;4.466;2022-11-02T00:28:58;56597.75;;;-144.48;89.65
68758;BME280;55747;51.998;4.466;2022-11-02T00:31:23;56603.97;;;-144.48;88.91
68758;BME280;55747;51.998;4.466;2022-11-02T00:33:48;56558.47;;;-144.48;88.42
68758;BME280;55747;51.998;4.466;2022-11-02T00:36:14;56558.47;;;-144.48;87.53
68758;BME280;55747;51.998;4.466;2022-11-02T00:38:39;56583.28;;;-144.48;86.13
68758;BME280;55747;51.998;4.466;2022-11-02T00:41:05;56603.97;;;-144.48;84.59
68758;BME280;55747;51.998;4.466;2022-11-02T00:43:30;56577.09;;;-144.48;83.25
68758;BME280;55747;51.998;4.466;2022-11-02T00:45:55;56579.16;;;-144.48;83.14
68758;BME280;55747;51.998;4.466;2022-11-02T00:48:21;56552.28;;;-144.48;82.75
68758;BME280;55747;51.998;4.466;2022-11-02T00:50:46;56566.75;;;-144.48;82.49
68758;BME280;55747;51.998;4.466;2022-11-02T00:53:11;56568.81;;;-144.48;82.41
68758;BME280;55747;51.998;4.466;2022-11-02T00:55:37;56603.97;;;-144.48;81.76
68758;BME280;55747;51.998;4.466;2022-11-02T00:58:02;56572.94;;;-144.48;80.51
68758;BME280;55747;51.998;4.466;2022-11-02T01:00:27;56570.88;;;-144.48;80.03
68758;BME280;55747;51.998;4.466;2022-11-02T01:02:53;56603.97;;;-144.48;79.92
68758;BME280;55747;51.998;4.466;2022-11-02T01:05:18;56612.22;;;-144.48;79.56
68758;BME280;55747;51.998;4.466;2022-11-02T01:07:43;56572.94;;;-144.48;78.92
68758;BME280;55747;51.998;4.466;2022-11-02T01:10:09;56583.28;;;-144.48;78.46
68758;BME280;55747;51.998;4.466;2022-11-02T01:12:39;56599.81;;;-144.48;78.63
68758;BME280;55747;51.998;4.466;2022-11-02T01:15:07;56566.75;;;-144.48;78.80
68758;BME280;55747;51.998;4.466;2022-11-02T01:17:34;56589.50;;;-144.48;79.50
68758;BME280;55747;51.998;4.466;2022-11-02T01:20:00;56587.41;;;-144.48;80.39
68758;BME280;55747;51.998;4.466;2022-11-02T01:22:26;56581.22;;;-144.48;81.01
68758;BME280;55747;51.998;4.466;2022-11-02T01:24:51;56566.75;;;-144.48;81.69
68758;BME280;55747;51.998;4.466;2022-11-02T01:27:16;56548.13;;;-144.48;81.44
68758;BME280;55747;51.998;4.466;2022-11-02T01:29:41;56566.75;;;-144.48;81.79
68758;BME280;55747;51.998;4.466;2022-11-02T01:32:07;56552.28;;;-144.48;81.87
68758;BME280;55747;51.998;4.466;2022-11-02T01:34:32;56564.69;;;-144.48;81.71
68758;BME280;55747;51.998;4.466;2022-11-02T01:36:58;56575.03;;;-144.48;81.79
68758;BME280;55747;51.998;4.466;2022-11-02T01:39:23;56595.69;;;-144.48;81.20
68758;BME280;55747;51.998;4.466;2022-11-02T01:41:52;56527.47;;;-144.48;80.11
68758;BME280;55747;51.998;4.466;2022-11-02T01:44:36;56579.16;;;-144.48;79.26
68758;BME280;55747;51.998;4.466;2022-11-02T01:47:25;56583.28;;;-144.48;78.39
68758;BME280;55747;51.998;4.466;2022-11-02T01:49:55;56612.22;;;-144.48;78.88
68758;BME280;55747;51.998;4.466;2022-11-02T01:52:30;56556.41;;;-144.48;78.50
68758;BME280;55747;51.998;4.466;2022-11-02T01:55:02;56568.81;;;-144.48;77.88
68758;BME280;55747;51.998;4.466;2022-11-02T01:57:30;56579.16;;;-144.48;77.83
68758;BME280;55747;51.998;4.466;2022-11-02T02:00:03;56595.69;;;-144.48;78.51
68758;BME280;55747;51.998;4.466;2022-11-02T02:02:28;56548.13;;;-144.48;78.13
68758;BME280;55747;51.998;4.466;2022-11-02T02:05:02;56570.88;;;-144.48;78.23
68758;BME280;55747;51.998;4.466;2022-11-02T02:07:29;56521.25;;;-144.48;77.96
68758;BME280;55747;51.998;4.466;2022-11-02T02:09:55;56579.16;;;-144.48;78.09
68758;BME280;55747;51.998;4.466;2022-11-02T02:12:22;56570.88;;;-144.48;78.51
68758;BME280;55747;51.998;4.466;2022-11-02T02:14:48;56560.53;;;-144.48;78.23
68758;BME280;55747;51.998;4.466;2022-11-02T02:17:30;56612.22;;;-144.48;77.82
68758;BME280;55747;51.998;4.466;2022-11-02T02:20:03;56554.34;;;-144.48;77.91
68758;BME280;55747;51.998;4.466;2022-11-02T02:23:04;56566.75;;;-144.48;77.02
68758;BME280;55747;51.998;4.466;2022-11-02T02:28:20;56595.69;;;-144.48;75.43
68758;BME280;55747;51.998;4.466;2022-11-02T02:30:59;56558.47;;;-144.48;76.16
68758;BME280;55747;51.998;4.466;2022-11-02T02:33:35;56587.41;;;-144.48;76.09
68758;BME280;55747;51.998;4.466;2022-11-02T02:36:42;56612.22;;;-144.48;75.53
68758;BME280;55747;51.998;4.466;2022-11-02T02:39:07;56550.22;;;-144.48;75.06
68758;BME280;55747;51.998;4.466;2022-11-02T02:41:38;56581.22;;;-144.48;75.67
68758;BME280;55747;51.998;4.466;2022-11-02T02:44:08;56572.94;;;-144.48;76.53
68758;BME280;55747;51.998;4.466;2022-11-02T02:46:58;56556.41;;;-144.48;78.58
68758;BME280;55747;51.998;4.466;2022-11-02T02:49:29;56560.53;;;-144.48;79.57
68758;BME280;55747;51.998;4.466;2022-11-02T02:51:57;56568.81;;;-144.48;80.78
68758;BME280;55747;51.998;4.466;2022-11-02T02:54:31;56572.94;;;-144.48;81.41
68758;BME280;55747;51.998;4.466;2022-11-02T02:57:02;56597.75;;;-144.48;82.21
68758;BME280;55747;51.998;4.466;2022-11-02T02:59:36;56556.41;;;-144.48;82.68
68758;BME280;55747;51.998;4.466;2022-11-02T03:02:12;56564.69;;;-144.48;83.14
68758;BME280;55747;51.998;4.466;2022-11-02T03:04:40;56579.16;;;-144.48;83.41
68758;BME280;55747;51.998;4.466;2022-11-02T03:07:05;56564.69;;;-144.48;83.97
68758;BME280;55747;51.998;4.466;2022-11-02T03:09:40;56556.41;;;-144.48;84.18
68758;BME280;55747;51.998;4.466;2022-11-02T03:12:38;56601.91;;;-144.48;84.62
68758;BME280;55747;51.998;4.466;2022-11-02T03:20:32;56577.09;;;-144.48;87.72
68758;BME280;55747;51.998;4.466;2022-11-02T03:23:05;56583.28;;;-144.48;88.45
68758;BME280;55747;51.998;4.466;2022-11-02T03:25:50;56572.94;;;-144.48;89.17
68758;BME280;55747;51.998;4.466;2022-11-02T03:28:31;56550.22;;;-144.48;89.64
68758;BME280;55747;51.998;4.466;2022-11-02T03:33:37;56572.94;;;-144.48;90.98
68758;BME280;55747;51.998;4.466;2022-11-02T03:38:42;56581.22;;;-144.48;91.13
68758;BME280;55747;51.998;4.466;2022-11-02T03:41:09;56585.34;;;-144.48;90.85
68758;BME280;55747;51.998;4.466;2022-11-02T03:43:37;56601.91;;;-144.48;90.60
68758;BME280;55747;51.998;4.466;2022-11-02T03:46:06;56539.88;;;-144.48;90.61
68758;BME280;55747;51.998;4.466;2022-11-02T03:48:45;56618.44;;;-144.48;90.18
68758;BME280;55747;51.998;4.466;2022-11-02T03:51:14;56610.16;;;-144.48;89.40
68758;BME280;55747;51.998;4.466;2022-11-02T03:53:58;56556.41;;;-144.48;88.52
68758;BME280;55747;51.998;4.466;2022-11-02T03:56:43;56581.22;;;-144.48;87.90
68758;BME280;55747;51.998;4.466;2022-11-02T03:59:10;56577.09;;;-144.48;87.76
68758;BME280;55747;51.998;4.466;2022-11-02T04:01:47;56593.63;;;-144.48;87.95
68758;BME280;55747;51.998;4.466;2022-11-02T04:04:13;56581.22;;;-144.48;88.36
68758;BME280;55747;51.998;4.466;2022-11-02T04:06:40;56601.91;;;-144.48;88.69
68758;BME280;55747;51.998;4.466;2022-11-02T04:09:06;56548.13;;;-144.48;88.81
68758;BME280;55747;51.998;4.466;2022-11-02T04:11:32;56570.88;;;-144.48;88.71
68758;BME280;55747;51.998;4.466;2022-11-02T04:14:16;56570.88;;;-144.48;89.09
68758;BME280;55747;51.998;4.466;2022-11-02T04:17:00;56593.63;;;-144.48;89.43
68758;BME280;55747;51.998;4.466;2022-11-02T04:19:44;56579.16;;;-144.48;89.93
68758;BME280;55747;51.998;4.466;2022-11-02T04:22:09;56616.38;;;-144.48;90.20
68758;BME280;55747;51.998;4.466;2022-11-02T04:24:53;56566.75;;;-144.48;90.22
68758;BME280;55747;51.998;4.466;2022-11-02T04:27:37;56577.09;;;-144.48;89.86
68758;BME280;55747;51.998;4.466;2022-11-02T04:30:03;56581.22;;;-144.48;90.06
68758;BME280;55747;51.998;4.466;2022-11-02T04:32:28;56595.69;;;-144.48;90.08
68758;BME280;55747;51.998;4.466;2022-11-02T04:35:12;56585.34;;;-144.48;90.06
68758;BME280;55747;51.998;4.466;2022-11-02T04:37:39;56579.16;;;-144.48;89.52
68758;BME280;55747;51.998;4.466;2022-11-02T04:40:24;56601.91;;;-144.48;89.60
68758;BME280;55747;51.998;4.466;2022-11-02T04:42:49;56601.91;;;-144.48;89.36
68758;BME280;55747;51.998;4.466;2022-11-02T04:45:15;56597.75;;;-144.48;89.33
68758;BME280;55747;51.998;4.466;2022-11-02T04:47:40;56579.16;;;-144.48;89.11
68758;BME280;55747;51.998;4.466;2022-11-02T04:50:05;56562.63;;;-144.48;88.77
68758;BME280;55747;51.998;4.466;2022-11-02T04:52:30;56597.75;;;-144.48;87.73
68758;BME280;55747;51.998;4.466;2022-11-02T04:54:56;56558.47;;;-144.48;86.66
68758;BME280;55747;51.998;4.466;2022-11-02T04:57:21;56591.56;;;-144.48;85.85
68758;BME280;55747;51.998;4.466;2022-11-02T04:59:46;56583.28;;;-144.48;85.05
68758;BME280;55747;51.998;4.466;2022-11-02T05:02:14;56585.34;;;-144.48;84.11
68758;BME280;55747;51.998;4.466;2022-11-02T05:04:39;56579.16;;;-144.48;83.38
68758;BME280;55747;51.998;4.466;2022-11-02T05:07:05;56593.63;;;-144.48;83.21
68758;BME280;55747;51.998;4.466;2022-11-02T05:09:31;56550.22;;;-144.48;82.87
68758;BME280;55747;51.998;4.466;2022-11-02T05:11:57;56589.50;;;-144.48;81.34
68758;BME280;55747;51.998;4.466;2022-11-02T05:14:22;56587.41;;;-144.48;80.00
68758;BME280;55747;51.998;4.466;2022-11-02T05:16:48;56603.97;;;-144.48;78.91
68758;BME280;55747;51.998;4.466;2022-11-02T05:19:13;56603.97;;;-144.48;77.12
68758;BME280;55747;51.998;4.466;2022-11-02T05:21:38;56583.28;;;-144.48;76.41
68758;BME280;55747;51.998;4.466;2022-11-02T05:24:04;56575.03;;;-144.48;75.33
68758;BME280;55747;51.998;4.466;2022-11-02T05:26:29;56589.50;;;-144.48;75.24
68758;BME280;55747;51.998;4.466;2022-11-02T05:28:54;56539.88;;;-144.48;74.90
68758;BME280;55747;51.998;4.466;2022-11-02T05:31:20;56548.13;;;-144.48;75.48
68758;BME280;55747;51.998;4.466;2022-11-02T05:33:45;56577.09;;;-144.48;75.58
68758;BME280;55747;51.998;4.466;2022-11-02T05:36:10;56593.63;;;-144.48;75.16
68758;BME280;55747;51.998;4.466;2022-11-02T05:38:36;56568.81;;;-144.48;75.71
68758;BME280;55747;51.998;4.466;2022-11-02T05:41:02;56591.56;;;-144.48;75.68
68758;BME280;55747;51.998;4.466;2022-11-02T05:43:27;56587.41;;;-144.48;75.76
68758;BME280;55747;51.998;4.466;2022-11-02T05:45:53;56585.34;;;-144.48;74.98
68758;BME280;55747;51.998;4.466;2022-11-02T05:48:19;56597.75;;;-144.48;75.04
68758;BME280;55747;51.998;4.466;2022-11-02T05:50:45;56583.28;;;-144.48;74.91
68758;BME280;55747;51.998;4.466;2022-11-02T05:53:10;56597.75;;;-144.48;74.86
68758;BME280;55747;51.998;4.466;2022-11-02T05:55:35;56591.56;;;-144.48;74.69
68758;BME280;55747;51.998;4.466;2022-11-02T05:58:01;56579.16;;;-144.48;74.28
68758;BME280;55747;51.998;4.466;2022-11-02T06:00:26;56562.63;;;-144.48;73.15
68758;BME280;55747;51.998;4.466;2022-11-02T06:02:58;56585.34;;;-144.48;72.01
68758;BME280;55747;51.998;4.466;2022-11-02T06:05:24;56585.34;;;-144.48;72.20
68758;BME280;55747;51.998;4.466;2022-11-02T06:07:53;56550.22;;;-144.48;71.49
68758;BME280;55747;51.998;4.466;2022-11-02T06:10:25;56585.34;;;-144.48;71.99
68758;BME280;55747;51.998;4.466;2022-11-02T06:12:55;56622.56;;;-144.48;72.27
68758;BME280;55747;51.998;4.466;2022-11-02T06:15:21;56560.53;;;-144.48;71.73
68758;BME280;55747;51.998;4.466;2022-11-02T06:17:46;56614.31;;;-144.48;71.43
68758;BME280;55747;51.998;4.466;2022-11-02T06:20:11;56603.97;;;-144.48;71.13
68758;BME280;55747;51.998;4.466;2022-11-02T06:22:38;56616.38;;;-144.48;71.01
68758;BME280;55747;51.998;4.466;2022-11-02T06:25:04;56568.81;;;-144.48;70.48
68758;BME280;55747;51.998;4.466;2022-11-02T06:27:30;56566.75;;;-144.48;69.74
68758;BME280;55747;51.998;4.466;2022-11-02T06:29:55;56610.16;;;-144.48;69.55
68758;BME280;55747;51.998;4.466;2022-11-02T06:32:20;56595.69;;;-144.48;68.96
68758;BME280;55747;51.998;4.466;2022-11-02T06:34:46;56620.50;;;-144.48;69.11
68758;BME280;55747;51.998;4.466;2022-11-02T06:37:11;56570.88;;;-144.48;68.97
68758;BME280;55747;51.998;4.466;2022-11-02T06:39:36;56564.69;;;-144.48;69.52
68758;BME280;55747;51.998;4.466;2022-11-02T06:42:02;56566.75;;;-144.48;69.21
68758;BME280;55747;51.998;4.466;2022-11-02T06:44:27;56579.16;;;-144.48;68.81
68758;BME280;55747;51.998;4.466;2022-11-02T06:46:52;56546.06;;;-144.48;68.50
68758;BME280;55747;51.998;4.466;2022-11-02T06:52:08;56550.22;;;-144.48;69.15
68758;BME280;55747;51.998;4.466;2022-11-02T06:54:39;56579.16;;;-144.48;69.36
68758;BME280;55747;51.998;4.466;2022-11-02T06:57:52;56556.41;;;-144.48;68.61
68758;BME280;55747;51.998;4.466;2022-11-02T07:00:22;56593.63;;;-144.48;68.39
68758;BME280;55747;51.998;4.466;2022-11-02T07:03:15;56556.41;;;-144.48;68.47
68758;BME280;55747;51.998;4.466;2022-11-02T07:05:54;56556.41;;;-144.48;69.12
68758;BME280;55747;51.998;4.466;2022-11-02T07:08:47;56591.56;;;-144.48;68.74
68758;BME280;55747;51.998;4.466;2022-11-02T07:11:29;56587.41;;;-144.48;68.47
68758;BME280;55747;51.998;4.466;2022-11-02T07:13:57;56593.63;;;-144.48;68.39
68758;BME280;55747;51.998;4.466;2022-11-02T07:16:31;56562.63;;;-144.48;67.66
68758;BME280;55747;51.998;4.466;2022-11-02T07:22:41;56601.91;;;-144.48;67.26
68758;BME280;55747;51.998;4.466;2022-11-02T07:25:42;56566.75;;;-144.48;66.93
68758;BME280;55747;51.998;4.466;2022-11-02T07:31:59;56595.69;;;-144.48;65.69
68758;BME280;55747;51.998;4.466;2022-11-02T07:34:35;56579.16;;;-144.48;65.50
68758;BME280;55747;51.998;4.466;2022-11-02T07:37:06;56552.28;;;-144.48;65.88
68758;BME280;55747;51.998;4.466;2022-11-02T07:39:34;56531.59;;;-144.48;66.12
68758;BME280;55747;51.998;4.466;2022-11-02T07:42:07;56564.69;;;-144.48;67.01
68758;BME280;55747;51.998;4.466;2022-11-02T07:44:42;56550.22;;;-144.48;66.53
68758;BME280;55747;51.998;4.466;2022-11-02T07:47:10;56612.22;;;-144.48;66.71
68758;BME280;55747;51.998;4.466;2022-11-02T07:49:43;56570.88;;;-144.48;66.92
68758;BME280;55747;51.998;4.466;2022-11-02T07:52:18;56575.03;;;-144.48;66.91
68758;BME280;55747;51.998;4.466;2022-11-02T07:54:46;56539.88;;;-144.48;67.10
68758;BME280;55747;51.998;4.466;2022-11-02T07:57:22;56550.22;;;-144.48;66.42
68758;BME280;55747;51.998;4.466;2022-11-02T07:59:56;56535.75;;;-144.48;66.75
68758;BME280;55747;51.998;4.466;2022-11-02T08:02:22;56537.81;;;-144.48;66.56
68758;BME280;55747;51.998;4.466;2022-11-02T08:04:47;56564.69;;;-144.48;66.93
68758;BME280;55747;51.998;4.466;2022-11-02T08:07:18;56523.34;;;-144.48;66.52
68758;BME280;55747;51.998;4.466;2022-11-02T08:09:44;56554.34;;;-144.48;66.52
68758;BME280;55747;51.998;4.466;2022-11-02T08:12:30;56541.94;;;-144.48;65.92
68758;BME280;55747;51.998;4.466;2022-11-02T08:14:56;56562.63;;;-144.48;65.48
68758;BME280;55747;51.998;4.466;2022-11-02T08:17:33;56535.75;;;-144.48;65.66
68758;BME280;55747;51.998;4.466;2022-11-02T08:20:13;56583.28;;;-144.48;65.73
68758;BME280;55747;51.998;4.466;2022-11-02T08:39:06;56556.41;;;-144.48;64.56
68758;BME280;55747;51.998;4.466;2022-11-02T12:49:29;56475.78;;;-144.48;52.48
68758;BME280;55747;51.998;4.466;2022-11-02T14:11:20;56517.13;;;-144.48;64.46
68758;BME280;55747;51.998;4.466;2022-11-02T14:14:13;56533.66;;;-144.48;65.61
68758;BME280;55747;51.998;4.466;2022-11-02T14:53:00;56500.59;;;-144.48;62.96
68758;BME280;55747;51.998;4.466;2022-11-02T14:56:06;56519.19;;;-144.48;63.93
68758;BME280;55747;51.998;4.466;2022-11-02T15:23:33;56494.38;;;-144.48;62.25
68758;BME280;55747;51.998;4.466;2022-11-02T15:26:56;56562.63;;;-144.48;62.49
68758;BME280;55747;51.998;4.466;2022-11-02T15:29:42;56513.00;;;-144.48;62.66
68758;BME280;55747;51.998;4.466;2022-11-02T15:32:24;56496.44;;;-144.48;62.23
68758;BME280;55747;51.998;4.466;2022-11-02T15:34:54;56533.66;;;-144.48;62.30
68758;BME280;55747;51.998;4.466;2022-11-02T15:37:44;56544.00;;;-144.48;61.81
68758;BME280;55747;51.998;4.466;2022-11-02T16:03:15;56531.59;;;-144.48;61.55
68758;BME280;55747;51.998;4.466;2022-11-02T16:09:44;56515.06;;;-144.48;62.04
68758;BME280;55747;51.998;4.466;2022-11-02T16:57:23;56513.00;;;-144.48;63.39
68758;BME280;55747;51.998;4.466;2022-11-02T17:00:19;56546.06;;;-144.48;63.15
68758;BME280;55747;51.998;4.466;2022-11-02T17:10:01;56527.47;;;-144.48;63.36
68758;BME280;55747;51.998;4.466;2022-11-02T17:12:43;56500.59;;;-144.48;63.46
68758;BME280;55747;51.998;4.466;2022-11-02T17:21:46;56523.34;;;-144.48;63.68
68758;BME280;55747;51.998;4.466;2022-11-02T17:27:56;56537.81;;;-144.48;63.74
68758;BME280;55747;51.998;4.466;2022-11-02T17:34:58;56550.22;;;-144.48;64.03
68758;BME280;55747;51.998;4.466;2022-11-02T17:41:35;56515.06;;;-144.48;63.76
68758;BME280;55747;51.998;4.466;2022-11-02T17:44:21;56513.00;;;-144.48;63.64
68758;BME280;55747;51.998;4.466;2022-11-02T17:46:49;56531.59;;;-144.48;63.07
68758;BME280;55747;51.998;4.466;2022-11-02T17:49:49;56510.94;;;-144.48;62.81
68758;BME280;55747;51.998;4.466;2022-11-02T17:52:26;56531.59;;;-144.48;62.36
68758;BME280;55747;51.998;4.466;2022-11-02T17:54:54;56513.00;;;-144.48;62.35
68758;BME280;55747;51.998;4.466;2022-11-02T17:57:22;56481.97;;;-144.48;62.66
68758;BME280;55747;51.998;4.466;2022-11-02T17:59:48;56517.13;;;-144.48;62.38
68758;BME280;55747;51.998;4.466;2022-11-02T18:02:21;56508.84;;;-144.48;62.52
68758;BME280;55747;51.998;4.466;2022-11-02T18:04:46;56490.25;;;-144.48;62.64
68758;BME280;55747;51.998;4.466;2022-11-02T18:07:11;56513.00;;;-144.48;62.71
68758;BME280;55747;51.998;4.466;2022-11-02T18:09:39;56562.63;;;-144.48;62.46
68758;BME280;55747;51.998;4.466;2022-11-02T18:12:22;56502.66;;;-144.48;62.77
68758;BME280;55747;51.998;4.466;2022-11-02T18:14:48;56535.75;;;-144.48;62.92
68758;BME280;55747;51.998;4.466;2022-11-02T18:17:13;56484.06;;;-144.48;62.79
68758;BME280;55747;51.998;4.466;2022-11-02T18:19:38;56517.13;;;-144.48;62.78
68758;BME280;55747;51.998;4.466;2022-11-02T18:22:08;56510.94;;;-144.48;62.80
68758;BME280;55747;51.998;4.466;2022-11-02T18:24:41;56521.25;;;-144.48;62.85
68758;BME280;55747;51.998;4.466;2022-11-02T18:27:24;56531.59;;;-144.48;62.39
68758;BME280;55747;51.998;4.466;2022-11-02T18:29:49;56492.31;;;-144.48;62.60
68758;BME280;55747;51.998;4.466;2022-11-02T18:32:15;56544.00;;;-144.48;62.85
68758;BME280;55747;51.998;4.466;2022-11-02T18:34:40;56550.22;;;-144.48;62.90
68758;BME280;55747;51.998;4.466;2022-11-02T18:37:05;56506.78;;;-144.48;61.90
68758;BME280;55747;51.998;4.466;2022-11-02T18:39:31;56529.53;;;-144.48;61.85
68758;BME280;55747;51.998;4.466;2022-11-02T18:41:56;56498.53;;;-144.48;62.32
68758;BME280;55747;51.998;4.466;2022-11-02T18:44:25;56535.75;;;-144.48;62.16
68758;BME280;55747;51.998;4.466;2022-11-02T18:46:50;56504.72;;;-144.48;61.92
68758;BME280;55747;51.998;4.466;2022-11-02T18:49:26;56541.94;;;-144.48;61.80
68758;BME280;55747;51.998;4.466;2022-11-02T18:51:54;56517.13;;;-144.48;61.62
68758;BME280;55747;51.998;4.466;2022-11-02T18:54:28;56531.59;;;-144.48;61.91
68758;BME280;55747;51.998;4.466;2022-11-02T18:56:53;56492.31;;;-144.48;62.18
68758;BME280;55747;51.998;4.466;2022-11-02T18:59:19;56490.25;;;-144.48;61.95
68758;BME280;55747;51.998;4.466;2022-11-02T19:01:44;56535.75;;;-144.48;62.28
68758;BME280;55747;51.998;4.466;2022-11-02T19:04:10;56546.06;;;-144.48;61.96
68758;BME280;55747;51.998;4.466;2022-11-02T19:06:35;56502.66;;;-144.48;62.18
68758;BME280;55747;51.998;4.466;2022-11-02T19:09:27;56533.66;;;-144.48;62.21
68758;BME280;55747;51.998;4.466;2022-11-02T19:12:13;56519.19;;;-144.48;62.21
68758;BME280;55747;51.998;4.466;2022-11-02T19:14:44;56515.06;;;-144.48;62.56
68758;BME280;55747;51.998;4.466;2022-11-02T19:17:11;56521.25;;;-144.48;62.33
68758;BME280;55747;51.998;4.466;2022-11-02T19:19:37;56502.66;;;-144.48;62.19
68758;BME280;55747;51.998;4.466;2022-11-02T19:22:05;56527.47;;;-144.48;62.07
68758;BME280;55747;51.998;4.466;2022-11-02T19:24:33;56513.00;;;-144.48;62.05
68758;BME280;55747;51.998;4.466;2022-11-02T19:29:57;56533.66;;;-144.48;62.19
68758;BME280;55747;51.998;4.466;2022-11-02T19:32:50;56523.34;;;-144.48;62.40
68758;BME280;55747;51.998;4.466;2022-11-02T19:35:57;56525.41;;;-144.48;62.19
68758;BME280;55747;51.998;4.466;2022-11-02T19:38:23;56498.53;;;-144.48;62.17
68758;BME280;55747;51.998;4.466;2022-11-02T19:41:02;56523.34;;;-144.48;62.21
68758;BME280;55747;51.998;4.466;2022-11-02T19:43:42;56508.84;;;-144.48;61.80
68758;BME280;55747;51.998;4.466;2022-11-02T19:46:16;56517.13;;;-144.48;61.90
68758;BME280;55747;51.998;4.466;2022-11-02T19:48:42;56523.34;;;-144.48;62.27
68758;BME280;55747;51.998;4.466;2022-11-02T19:51:29;56531.59;;;-144.48;62.21
68758;BME280;55747;51.998;4.466;2022-11-02T19:53:57;56541.94;;;-144.48;62.17
68758;BME280;55747;51.998;4.466;2022-11-02T19:56:28;56531.59;;;-144.48;62.20
68758;BME280;55747;51.998;4.466;2022-11-02T19:58:54;56523.34;;;-144.48;62.37
68758;BME280;55747;51.998;4.466;2022-11-02T20:04:26;56513.00;;;-144.48;62.35
68758;BME280;55747;51.998;4.466;2022-11-02T20:07:16;56513.00;;;-144.48;62.74
68758;BME280;55747;51.998;4.466;2022-11-02T20:09:50;56521.25;;;-144.48;62.82
68758;BME280;55747;51.998;4.466;2022-11-02T20:12:25;56510.94;;;-144.48;62.88
68758;BME280;55747;51.998;4.466;2022-11-02T20:14:59;56510.94;;;-144.48;63.08
68758;BME280;55747;51.998;4.466;2022-11-02T20:17:27;56508.84;;;-144.48;63.07
68758;BME280;55747;51.998;4.466;2022-11-02T20:20:33;56517.13;;;-144.48;62.71
68758;BME280;55747;51.998;4.466;2022-11-02T20:23:15;56521.25;;;-144.48;62.38
68758;BME280;55747;51.998;4.466;2022-11-02T20:25:47;56517.13;;;-144.48;62.38
68758;BME280;55747;51.998;4.466;2022-11-02T20:28:26;56554.34;;;-144.48;62.35
68758;BME280;55747;51.998;4.466;2022-11-02T20:31:07;56519.19;;;-144.48;62.10
68758;BME280;55747;51.998;4.466;2022-11-02T20:33:36;56537.81;;;-144.48;61.96
68758;BME280;55747;51.998;4.466;2022-11-02T20:36:27;56519.19;;;-144.48;62.41
68758;BME280;55747;51.998;4.466;2022-11-02T20:38:56;56544.00;;;-144.48;62.43
68758;BME280;55747;51.998;4.466;2022-11-02T20:45:05;56527.47;;;-144.48;61.83
68758;BME280;55747;51.998;4.466;2022-11-02T20:48:00;56556.41;;;-144.48;62.33
68758;BME280;55747;51.998;4.466;2022-11-02T20:50:37;56523.34;;;-144.48;62.71
68758;BME280;55747;51.998;4.466;2022-11-02T20:55:51;56533.66;;;-144.48;62.71
68758;BME280;55747;51.998;4.466;2022-11-02T20:58:25;56537.81;;;-144.48;62.78
68758;BME280;55747;51.998;4.466;2022-11-02T21:00:51;56484.06;;;-144.48;62.41
68758;BME280;55747;51.998;4.466;2022-11-02T21:03:23;56523.34;;;-144.48;62.66
68758;BME280;55747;51.998;4.466;2022-11-02T21:05:49;56506.78;;;-144.48;62.27
68758;BME280;55747;51.998;4.466;2022-11-02T21:08:18;56523.34;;;-144.48;62.13
68758;BME280;55747;51.998;4.466;2022-11-02T21:11:05;56500.59;;;-144.48;62.56
68758;BME280;55747;51.998;4.466;2022-11-02T21:13:51;56515.06;;;-144.48;62.42
68758;BME280;55747;51.998;4.466;2022-11-02T21:16:22;56498.53;;;-144.48;62.71
68758;BME280;55747;51.998;4.466;2022-11-02T21:19:04;56494.38;;;-144.48;62.54
68758;BME280;55747;51.998;4.466;2022-11-02T21:21:35;56515.06;;;-144.48;62.55
68758;BME280;55747;51.998;4.466;2022-11-02T21:24:10;56515.06;;;-144.48;62.41
68758;BME280;55747;51.998;4.466;2022-11-02T21:26:40;56481.97;;;-144.48;62.54
68758;BME280;55747;51.998;4.466;2022-11-02T21:29:11;56500.59;;;-144.48;62.57
68758;BME280;55747;51.998;4.466;2022-11-02T21:31:36;56496.44;;;-144.48;62.80
68758;BME280;55747;51.998;4.466;2022-11-02T21:34:02;56531.59;;;-144.48;62.82
68758;BME280;55747;51.998;4.466;2022-11-02T21:36:27;56537.81;;;-144.48;62.60
68758;BME280;55747;51.998;4.466;2022-11-02T21:38:53;56537.81;;;-144.48;62.65
68758;BME280;55747;51.998;4.466;2022-11-02T21:41:27;56510.94;;;-144.48;63.15
68758;BME280;55747;51.998;4.466;2022-11-02T21:44:05;56504.72;;;-144.48;62.93
68758;BME280;55747;51.998;4.466;2022-11-02T21:46:34;56500.59;;;-144.48;62.89
68758;BME280;55747;51.998;4.466;2022-11-02T21:48:59;56537.81;;;-144.48;63.09
68758;BME280;55747;51.998;4.466;2022-11-02T21:51:31;56488.19;;;-144.48;63.45
68758;BME280;55747;51.998;4.466;2022-11-02T21:53:59;56523.34;;;-144.48;63.15
68758;BME280;55747;51.998;4.466;2022-11-02T21:56:28;56513.00;;;-144.48;63.43
68758;BME280;55747;51.998;4.466;2022-11-02T21:59:16;56519.19;;;-144.48;63.18
68758;BME280;55747;51.998;4.466;2022-11-02T22:01:44;56508.84;;;-144.48;62.67
68758;BME280;55747;51.998;4.466;2022-11-02T22:04:27;56525.41;;;-144.48;63.34